Time;durP1;ratioP1;P1;durP2;ratioP2;P2;SDS_P1;SDS_P2;PMS_P1;PMS_P2;Temp;Humidity;BMP_temperature;BMP_pressure;BME280_temperature;BME280_humidity;BME280_pressure;Samples;Min_cycle;Max_cycle;Signal;HPM_P1;HPM_P2
2023/09/29 00:00:32;;;;;;;373.23;356.47;;;17.00;99.90;;;;;;5014909;28;20492;-72
2023/09/29 00:02:59;;;;;;;374.17;357.37;;;17.00;99.90;;;;;;5015042;28;20454;-73
2023/09/29 00:05:27;;;;;;;370.30;353.90;;;17.00;99.90;;;;;;5015144;28;20857;-72
2023/09/29 00:07:54;;;;;;;359.40;343.10;;;17.00;99.90;;;;;;5014785;28;20452;-72
2023/09/29 00:10:23;;;;;;;361.77;345.97;;;17.10;99.90;;;;;;5015037;28;20491;-72
2023/09/29 00:12:50;;;;;;;362.67;346.47;;;17.10;99.90;;;;;;5014843;28;20446;-72
2023/09/29 00:15:19;;;;;;;364.40;348.17;;;17.00;99.90;;;;;;5015021;28;20453;-72
2023/09/29 00:17:46;;;;;;;369.17;352.27;;;17.00;99.90;;;;;;5014802;28;20447;-73
2023/09/29 00:20:18;;;;;;;383.30;365.33;;;17.00;99.90;;;;;;5014553;28;20461;-72
2023/09/29 00:22:45;;;;;;;388.13;370.17;;;17.00;99.90;;;;;;5014590;28;20478;-72
2023/09/29 00:25:12;;;;;;;393.53;375.17;;;17.00;99.90;;;;;;5014597;28;20460;-72
2023/09/29 00:27:41;;;;;;;390.80;372.23;;;17.00;99.90;;;;;;5014577;28;20476;-72
2023/09/29 00:30:12;;;;;;;397.47;378.50;;;17.00;99.90;;;;;;5014491;28;20544;-72
2023/09/29 00:32:43;;;;;;;387.90;369.80;;;17.00;99.90;;;;;;5014348;28;20454;-72
2023/09/29 00:35:18;;;;;;;390.87;372.53;;;17.00;99.90;;;;;;5014404;28;20542;-72
2023/09/29 00:37:45;;;;;;;380.83;363.13;;;17.00;99.90;;;;;;5014491;28;20481;-73
2023/09/29 00:40:14;;;;;;;387.80;369.73;;;17.00;99.90;;;;;;5014299;28;20857;-72
2023/09/29 00:42:43;;;;;;;386.60;368.07;;;17.00;99.90;;;;;;5013991;28;20458;-72
2023/09/29 00:45:11;;;;;;;383.87;365.67;;;17.00;99.90;;;;;;5014064;28;20449;-72
2023/09/29 00:47:39;;;;;;;376.13;358.53;;;17.00;99.90;;;;;;5014085;28;20449;-73
2023/09/29 00:50:10;;;;;;;376.30;359.00;;;17.00;99.90;;;;;;5014064;28;20496;-72
2023/09/29 00:52:38;;;;;;;397.27;378.67;;;17.00;99.90;;;;;;5014298;28;20448;-72
2023/09/29 00:55:11;;;;;;;389.93;371.93;;;17.00;99.90;;;;;;5013990;28;20966;-72
2023/09/29 00:57:39;;;;;;;399.57;380.37;;;17.00;99.90;;;;;;5014164;28;20670;-72
2023/09/29 01:00:15;;;;;;;397.17;378.27;;;17.00;99.90;;;;;;5014054;28;20546;-72
2023/09/29 01:02:43;;;;;;;403.90;384.53;;;17.00;99.90;;;;;;5014027;28;20467;-72
2023/09/29 01:05:12;;;;;;;406.43;386.97;;;17.00;99.90;;;;;;5014005;28;20460;-72
2023/09/29 01:07:39;;;;;;;404.50;384.80;;;17.00;99.90;;;;;;5013854;28;20443;-72
2023/09/29 01:10:06;;;;;;;419.50;398.67;;;16.90;99.90;;;;;;5013912;28;20951;-72
2023/09/29 01:12:34;;;;;;;421.67;400.53;;;16.90;99.90;;;;;;5013575;28;20454;-72
2023/09/29 01:15:03;;;;;;;419.97;398.47;;;16.90;99.90;;;;;;5013826;28;20488;-72
2023/09/29 01:17:31;;;;;;;440.63;416.50;;;16.90;99.90;;;;;;5013478;28;20542;-72
2023/09/29 01:19:58;;;;;;;440.20;417.40;;;16.80;99.90;;;;;;5013454;28;20950;-72
2023/09/29 01:22:26;;;;;;;440.70;417.60;;;16.80;99.90;;;;;;5013604;28;20499;-72
2023/09/29 01:24:54;;;;;;;447.87;424.50;;;16.80;99.90;;;;;;5014019;28;20481;-72
2023/09/29 01:27:21;;;;;;;443.57;419.80;;;16.80;99.90;;;;;;5013687;28;20445;-72
2023/09/29 01:29:48;;;;;;;455.43;431.00;;;16.70;99.90;;;;;;5013507;28;20470;-72
2023/09/29 01:32:15;;;;;;;473.63;447.87;;;16.70;99.90;;;;;;5013466;28;20492;-72
2023/09/29 01:34:42;;;;;;;492.23;464.93;;;16.70;99.90;;;;;;5012762;28;20461;-72
2023/09/29 01:37:11;;;;;;;481.77;453.97;;;16.70;99.90;;;;;;5013474;28;20917;-72
2023/09/29 01:39:38;;;;;;;476.23;449.83;;;16.70;99.90;;;;;;5013029;28;20458;-72
2023/09/29 01:42:07;;;;;;;484.50;457.77;;;16.70;99.90;;;;;;5013121;28;20494;-72
2023/09/29 01:44:34;;;;;;;459.17;433.30;;;16.80;99.90;;;;;;5013477;28;20449;-72
2023/09/29 01:47:01;;;;;;;456.87;431.13;;;16.80;99.90;;;;;;5013179;28;20938;-73
2023/09/29 01:49:29;;;;;;;449.97;425.07;;;16.80;99.90;;;;;;5013047;28;20478;-72
2023/09/29 01:51:56;;;;;;;467.50;441.80;;;16.80;99.90;;;;;;5012971;28;20457;-72
2023/09/29 01:54:24;;;;;;;466.37;440.20;;;16.80;99.90;;;;;;5013025;28;20485;-72
2023/09/29 01:56:51;;;;;;;472.13;445.97;;;16.80;99.90;;;;;;5013053;28;20482;-72
2023/09/29 01:59:19;;;;;;;481.10;454.30;;;16.80;99.90;;;;;;5013049;28;21008;-73
2023/09/29 02:01:46;;;;;;;520.67;491.93;;;16.80;99.90;;;;;;5012771;28;20494;-72
2023/09/29 02:04:13;;;;;;;504.97;476.73;;;16.70;99.90;;;;;;5012881;28;20843;-72
2023/09/29 02:06:41;;;;;;;522.03;492.33;;;16.70;99.90;;;;;;5012759;28;20446;-72
2023/09/29 02:09:09;;;;;;;532.17;501.90;;;16.70;99.90;;;;;;5012913;28;20507;-72
2023/09/29 02:11:39;;;;;;;519.50;490.30;;;16.70;99.90;;;;;;5012614;28;20484;-73
2023/09/29 02:14:06;;;;;;;519.93;490.33;;;16.60;99.90;;;;;;5012672;28;20461;-72
2023/09/29 02:16:36;;;;;;;519.10;489.20;;;16.60;99.90;;;;;;5012565;28;20475;-72
2023/09/29 02:19:03;;;;;;;507.37;477.87;;;16.60;99.90;;;;;;5012486;28;20465;-72
2023/09/29 02:21:32;;;;;;;514.30;484.70;;;16.70;99.90;;;;;;5012346;28;20926;-72
2023/09/29 02:23:59;;;;;;;512.27;482.93;;;16.70;99.90;;;;;;5012742;28;20895;-72
2023/09/29 02:26:29;;;;;;;501.90;473.97;;;16.70;99.90;;;;;;5012922;28;20450;-72
2023/09/29 02:28:56;;;;;;;464.27;438.67;;;16.80;99.90;;;;;;5012810;28;20978;-72
2023/09/29 02:31:26;;;;;;;472.13;446.10;;;16.80;99.90;;;;;;5012305;28;20457;-73
2023/09/29 02:33:55;;;;;;;470.50;444.90;;;16.80;99.90;;;;;;5012783;28;20560;-73
2023/09/29 02:36:22;;;;;;;477.23;451.20;;;16.80;99.90;;;;;;5012428;28;20509;-72
2023/09/29 02:38:49;;;;;;;470.27;444.97;;;16.80;99.90;;;;;;5012385;28;21007;-72
2023/09/29 02:41:16;;;;;;;503.17;476.47;;;16.80;99.90;;;;;;5012418;28;20456;-72
2023/09/29 02:43:43;;;;;;;511.47;482.97;;;16.70;99.90;;;;;;5012389;28;20501;-72
2023/09/29 02:46:15;;;;;;;533.33;503.60;;;16.70;99.90;;;;;;5012592;28;20538;-72
2023/09/29 02:48:42;;;;;;;536.60;505.07;;;16.70;99.90;;;;;;5016588;28;20521;-73
2023/09/29 02:51:20;;;;;;;555.90;523.37;;;16.70;99.90;;;;;;5016017;28;20537;-72
2023/09/29 02:53:49;;;;;;;563.57;530.17;;;16.70;99.90;;;;;;5016553;28;20871;-72
2023/09/29 02:56:17;;;;;;;570.43;536.63;;;16.70;99.90;;;;;;5016367;28;20457;-72
2023/09/29 02:58:44;;;;;;;576.77;542.30;;;16.70;99.90;;;;;;5016255;28;20496;-72
2023/09/29 03:01:12;;;;;;;599.63;563.50;;;16.70;99.90;;;;;;5016112;28;20547;-72
2023/09/29 03:03:43;;;;;;;621.27;583.83;;;16.70;99.90;;;;;;5016101;28;20513;-72
2023/09/29 03:06:12;;;;;;;634.50;596.00;;;16.70;99.90;;;;;;5016352;28;20481;-72
2023/09/29 03:08:41;;;;;;;668.37;627.40;;;16.70;99.90;;;;;;5016183;28;20488;-72
2023/09/29 03:11:09;;;;;;;677.57;635.40;;;16.70;99.90;;;;;;5016035;28;20478;-72
2023/09/29 03:13:37;;;;;;;684.60;641.07;;;16.70;99.90;;;;;;5016040;28;20453;-72
2023/09/29 03:16:06;;;;;;;669.17;627.80;;;16.80;99.90;;;;;;5015823;28;20448;-72
2023/09/29 03:18:34;;;;;;;688.87;646.57;;;16.70;99.90;;;;;;5015941;28;20476;-72
2023/09/29 03:21:01;;;;;;;673.40;632.80;;;16.80;99.90;;;;;;5015840;28;20460;-72
2023/09/29 03:23:28;;;;;;;663.03;622.70;;;16.80;99.90;;;;;;5016123;28;20544;-72
2023/09/29 03:25:56;;;;;;;643.53;605.07;;;16.80;99.90;;;;;;5015788;28;20959;-73
2023/09/29 03:28:23;;;;;;;619.03;582.23;;;16.80;99.90;;;;;;5015536;28;20596;-72
2023/09/29 03:30:50;;;;;;;618.43;581.97;;;16.80;99.90;;;;;;5015417;28;20449;-72
2023/09/29 03:33:17;;;;;;;593.10;558.30;;;16.90;99.90;;;;;;5015652;28;20452;-72
2023/09/29 03:35:45;;;;;;;588.23;554.03;;;16.90;99.90;;;;;;5015584;28;20454;-72
2023/09/29 03:38:14;;;;;;;577.47;544.67;;;16.90;99.90;;;;;;5015711;28;20500;-73
2023/09/29 03:40:44;;;;;;;567.00;534.67;;;16.90;99.90;;;;;;5015458;28;20834;-72
2023/09/29 03:43:12;;;;;;;555.07;523.47;;;16.90;99.90;;;;;;5015358;28;20458;-77
2023/09/29 03:45:42;;;;;;;547.20;515.23;;;17.00;99.90;;;;;;5015630;28;20838;-77
2023/09/29 03:48:09;;;;;;;549.67;518.03;;;17.00;99.90;;;;;;5015388;28;20456;-72
2023/09/29 03:50:36;;;;;;;554.60;522.77;;;17.00;99.90;;;;;;5015457;28;20505;-72
2023/09/29 03:53:04;;;;;;;524.40;494.00;;;17.00;99.90;;;;;;5015128;28;20538;-77
2023/09/29 03:55:30;;;;;;;515.00;486.13;;;17.10;99.90;;;;;;5015094;28;20459;-77
2023/09/29 03:57:57;;;;;;;508.30;479.60;;;17.10;99.90;;;;;;5014416;28;20476;-77
2023/09/29 04:00:26;;;;;;;509.53;481.03;;;17.10;99.90;;;;;;5015176;28;20448;-77
2023/09/29 04:02:54;;;;;;;485.00;457.50;;;17.10;99.90;;;;;;5015118;28;20480;-77
2023/09/29 04:05:21;;;;;;;478.37;450.57;;;17.10;99.90;;;;;;5015377;28;20487;-77
2023/09/29 04:07:48;;;;;;;485.77;457.67;;;17.10;99.90;;;;;;5015010;28;20541;-77
2023/09/29 04:10:15;;;;;;;494.00;464.90;;;17.10;99.90;;;;;;5015375;28;20458;-77
2023/09/29 04:12:45;;;;;;;512.07;482.30;;;17.10;99.90;;;;;;5014988;28;20493;-77
2023/09/29 04:15:12;;;;;;;562.87;530.67;;;17.10;99.90;;;;;;5014790;28;20455;-77
2023/09/29 04:17:41;;;;;;;634.77;597.57;;;17.10;99.90;;;;;;5014800;28;20511;-77
2023/09/29 04:20:09;;;;;;;683.00;642.20;;;17.10;99.90;;;;;;5014625;28;20543;-77
2023/09/29 04:22:36;;;;;;;760.27;714.13;;;17.10;99.90;;;;;;5014698;28;20482;-77
2023/09/29 04:25:04;;;;;;;817.80;766.03;;;17.10;99.90;;;;;;5014668;28;20494;-77
2023/09/29 04:27:31;;;;;;;868.77;812.83;;;17.10;99.90;;;;;;5014590;28;20535;-77
2023/09/29 04:29:58;;;;;;;885.27;827.40;;;17.10;99.90;;;;;;5014436;28;20490;-77
2023/09/29 04:32:25;;;;;;;897.47;838.67;;;17.00;99.90;;;;;;5014874;28;20452;-77
2023/09/29 04:34:53;;;;;;;905.47;847.87;;;17.00;99.90;;;;;;5014692;28;20487;-77
2023/09/29 04:37:20;;;;;;;913.00;854.20;;;17.00;99.90;;;;;;5014319;28;20475;-77
2023/09/29 04:39:47;;;;;;;935.40;873.80;;;17.00;99.90;;;;;;5014456;28;20463;-77
2023/09/29 04:42:14;;;;;;;935.77;872.20;;;17.00;99.90;;;;;;5014254;28;20492;-77
2023/09/29 04:44:41;;;;;;;935.23;869.87;;;17.00;99.90;;;;;;5014448;28;20459;-77
2023/09/29 04:47:08;;;;;;;940.17;873.70;;;17.00;99.90;;;;;;5014300;28;20443;-77
2023/09/29 04:49:35;;;;;;;939.83;872.80;;;17.00;99.90;;;;;;5014649;28;20537;-77
2023/09/29 04:52:04;;;;;;;948.83;880.30;;;16.90;99.90;;;;;;5013868;28;20485;-77
2023/09/29 04:54:31;;;;;;;952.60;883.13;;;16.90;99.90;;;;;;5014022;28;20456;-77
2023/09/29 04:56:58;;;;;;;951.03;882.13;;;16.90;99.90;;;;;;5013868;28;20486;-77
2023/09/29 04:59:24;;;;;;;958.27;887.80;;;16.90;99.90;;;;;;5014206;28;20457;-77
2023/09/29 05:01:54;;;;;;;953.37;883.67;;;16.90;99.90;;;;;;5013620;28;20455;-77
2023/09/29 05:04:21;;;;;;;952.97;880.37;;;16.90;99.90;;;;;;5013933;28;20457;-77
2023/09/29 05:06:48;;;;;;;957.77;887.37;;;16.80;99.90;;;;;;5013819;28;20452;-77
2023/09/29 05:09:16;;;;;;;952.53;881.87;;;16.80;99.90;;;;;;5012912;28;20482;-77
2023/09/29 05:11:43;;;;;;;957.13;885.63;;;16.80;99.90;;;;;;5013557;28;20506;-77
2023/09/29 05:14:10;;;;;;;956.17;884.57;;;16.80;99.90;;;;;;5013902;28;20488;-77
2023/09/29 05:16:37;;;;;;;952.90;881.80;;;16.80;99.90;;;;;;5013657;28;20458;-77
2023/09/29 05:19:05;;;;;;;965.23;893.53;;;16.80;99.90;;;;;;5013405;28;20483;-77
2023/09/29 05:21:32;;;;;;;959.97;889.07;;;16.80;99.90;;;;;;5030446;28;20934;-77
2023/09/29 05:24:00;;;;;;;961.20;889.83;;;16.80;99.90;;;;;;5032962;28;20547;-77
2023/09/29 05:26:28;;;;;;;956.83;884.57;;;16.80;99.90;;;;;;5033230;28;20477;-77
2023/09/29 05:28:56;;;;;;;954.17;884.37;;;16.80;99.90;;;;;;5033113;28;20468;-77
2023/09/29 05:31:22;;;;;;;953.33;884.27;;;16.90;99.90;;;;;;5033092;28;20932;-77
2023/09/29 05:33:53;;;;;;;966.33;895.23;;;16.90;99.90;;;;;;5033087;28;20957;-77
2023/09/29 05:36:20;;;;;;;963.20;893.60;;;16.90;99.90;;;;;;5032729;28;20433;-77
2023/09/29 05:38:47;;;;;;;936.03;867.27;;;17.00;99.90;;;;;;5032910;28;20484;-77
2023/09/29 05:41:14;;;;;;;927.20;861.80;;;17.00;99.90;;;;;;5032896;28;20831;-77
2023/09/29 05:43:43;;;;;;;926.77;861.60;;;17.00;99.90;;;;;;5032747;28;20461;-77
2023/09/29 05:46:10;;;;;;;940.83;874.90;;;17.10;99.90;;;;;;5032935;28;20454;-77
2023/09/29 05:48:38;;;;;;;932.67;867.63;;;17.10;99.90;;;;;;5032880;28;20488;-76
2023/09/29 05:51:05;;;;;;;929.53;866.07;;;17.20;99.90;;;;;;5032882;28;20450;-77
2023/09/29 05:53:32;;;;;;;935.60;870.40;;;17.20;99.90;;;;;;5032886;28;20513;-77
2023/09/29 05:56:08;;;;;;;932.77;869.53;;;17.30;99.90;;;;;;5032934;28;20513;-77
2023/09/29 05:58:35;;;;;;;922.57;860.37;;;17.30;99.90;;;;;;5032270;28;20480;-77
2023/09/29 06:01:10;;;;;;;913.20;852.33;;;17.30;99.90;;;;;;5032463;28;20547;-77
2023/09/29 06:03:38;;;;;;;924.47;863.20;;;17.30;99.90;;;;;;5032775;28;20454;-77
2023/09/29 06:06:05;;;;;;;926.77;865.07;;;17.30;99.90;;;;;;5032622;28;21006;-76
2023/09/29 06:08:32;;;;;;;915.10;854.27;;;17.30;99.90;;;;;;5032415;28;20451;-76
2023/09/29 06:10:59;;;;;;;907.50;848.00;;;17.40;99.90;;;;;;5032398;28;20465;-77
2023/09/29 06:13:25;;;;;;;902.17;842.43;;;17.40;99.90;;;;;;5032406;28;20454;-77
2023/09/29 06:15:52;;;;;;;903.87;843.90;;;17.40;99.90;;;;;;5032679;28;20449;-76
2023/09/29 06:18:21;;;;;;;897.47;838.67;;;17.40;99.90;;;;;;5032475;28;20529;-77
2023/09/29 06:20:47;;;;;;;877.20;821.03;;;17.40;99.90;;;;;;5031851;28;20539;-76
2023/09/29 06:23:15;;;;;;;871.10;815.73;;;17.50;99.90;;;;;;5032243;28;21007;-77
2023/09/29 06:25:42;;;;;;;863.37;808.97;;;17.50;99.90;;;;;;5032259;28;20534;-77
2023/09/29 06:28:09;;;;;;;868.93;814.80;;;17.50;99.90;;;;;;5032358;28;20448;-77
2023/09/29 06:30:36;;;;;;;876.33;820.87;;;17.60;99.90;;;;;;5032233;28;20517;-78
2023/09/29 06:33:03;;;;;;;862.83;808.63;;;17.60;99.90;;;;;;5032102;28;21002;-77
2023/09/29 06:35:32;;;;;;;876.63;821.03;;;17.60;99.90;;;;;;5031884;28;20539;-77
2023/09/29 06:37:59;;;;;;;872.43;818.10;;;17.70;99.90;;;;;;5031808;28;21013;-77
2023/09/29 06:40:26;;;;;;;883.03;827.80;;;17.70;99.90;;;;;;5032098;28;20940;-77
2023/09/29 06:42:53;;;;;;;865.77;811.97;;;17.90;99.90;;;;;;5032356;28;20516;-77
2023/09/29 06:45:20;;;;;;;845.10;793.20;;;18.00;99.90;;;;;;5032345;28;20853;-77
2023/09/29 06:47:47;;;;;;;847.90;796.17;;;18.00;99.90;;;;;;5032143;28;20450;-78
2023/09/29 06:50:14;;;;;;;851.50;800.57;;;18.10;99.90;;;;;;5031937;28;20543;-78
2023/09/29 06:52:42;;;;;;;844.80;794.77;;;18.30;99.90;;;;;;5032158;28;20580;-78
2023/09/29 06:55:09;;;;;;;867.23;815.67;;;18.40;99.90;;;;;;5031033;28;20481;-78
2023/09/29 06:57:36;;;;;;;849.53;801.10;;;18.60;99.90;;;;;;5031510;28;20487;-79
2023/09/29 07:00:06;;;;;;;825.70;779.60;;;18.80;99.90;;;;;;5031657;28;20504;-79
2023/09/29 07:02:33;;;;;;;778.83;738.43;;;19.00;99.90;;;;;;5031631;28;20450;-78
2023/09/29 07:05:00;;;;;;;563.03;538.07;;;19.10;99.90;;;;;;5030332;28;20457;-78
2023/09/29 07:07:27;;;;;;;546.00;522.47;;;19.30;99.90;;;;;;5031448;28;20453;-78
2023/09/29 07:09:55;;;;;;;473.63;455.23;;;19.50;99.90;;;;;;5031425;28;20451;-78
2023/09/29 07:12:22;;;;;;;388.27;373.63;;;19.50;99.90;;;;;;5031562;28;21032;-78
2023/09/29 07:14:51;;;;;;;396.30;382.30;;;19.60;99.90;;;;;;5031750;28;20531;-78
2023/09/29 07:17:18;;;;;;;390.17;375.67;;;19.60;99.90;;;;;;5031975;28;20865;-78
2023/09/29 07:19:45;;;;;;;353.13;340.83;;;19.50;99.90;;;;;;5031225;28;20495;-78
2023/09/29 07:22:12;;;;;;;414.87;399.50;;;19.50;99.90;;;;;;5031571;28;20448;-78
2023/09/29 07:24:41;;;;;;;470.43;451.93;;;19.50;99.90;;;;;;5031042;28;20483;-78
2023/09/29 07:27:09;;;;;;;474.08;454.60;;;19.60;99.90;;;;;;5030123;28;20449;-78
2023/09/29 07:29:36;;;;;;;479.25;458.92;;;19.60;99.90;;;;;;5029382;28;20885;-79
2023/09/29 07:32:03;;;;;;;366.63;353.47;;;19.80;99.90;;;;;;5030525;28;20202;-78
2023/09/29 07:34:31;;;;;;;345.13;332.93;;;19.90;99.90;;;;;;5034512;28;20504;-78
2023/09/29 07:36:58;;;;;;;337.37;326.13;;;20.00;99.90;;;;;;5034496;28;20989;-77
2023/09/29 07:39:25;;;;;;;332.90;321.90;;;20.10;99.90;;;;;;5034756;28;20485;-78
2023/09/29 07:41:52;;;;;;;278.50;269.10;;;20.20;99.90;;;;;;5035540;28;20482;-77
2023/09/29 07:44:21;;;;;;;279.53;269.87;;;20.30;99.90;;;;;;5035566;28;20450;-78
2023/09/29 07:46:52;;;;;;;156.97;151.57;;;20.50;99.90;;;;;;5035828;28;20509;-78
2023/09/29 07:49:20;;;;;;;185.13;178.73;;;20.70;99.90;;;;;;5035449;28;20448;-78
2023/09/29 07:51:47;;;;;;;160.87;155.10;;;21.10;99.90;;;;;;5035316;28;20487;-78
2023/09/29 07:54:15;;;;;;;77.83;74.33;;;21.60;99.90;;;;;;5035118;28;20456;-78
2023/09/29 07:56:47;;;;;;;35.27;33.27;;;22.00;99.90;;;;;;5035275;28;20893;-78
2023/09/29 07:59:14;;;;;;;14.27;12.67;;;22.30;99.90;;;;;;5035091;28;20482;-78
2023/09/29 08:01:48;;;;;;;7.53;5.07;;;22.50;99.90;;;;;;5035184;28;20452;-78
2023/09/29 08:04:15;;;;;;;8.40;4.13;;;22.60;99.90;;;;;;5035065;28;20928;-78
2023/09/29 08:06:42;;;;;;;11.77;4.43;;;22.50;99.10;;;;;;5035310;28;20455;-78
2023/09/29 08:09:12;;;;;;;8.93;4.43;;;22.60;98.90;;;;;;5035027;28;20888;-78
2023/09/29 08:11:38;;;;;;;11.70;6.10;;;22.60;96.20;;;;;;5035077;28;20482;-78
2023/09/29 08:14:05;;;;;;;10.47;4.47;;;22.60;97.80;;;;;;5034758;28;20462;-78
2023/09/29 08:16:32;;;;;;;6.97;3.67;;;22.70;96.30;;;;;;5034600;28;20448;-78
2023/09/29 08:19:01;;;;;;;9.33;4.50;;;22.70;96.20;;;;;;5034792;28;20519;-78
2023/09/29 08:21:28;;;;;;;8.63;4.73;;;22.60;96.20;;;;;;5034667;28;20493;-78
2023/09/29 08:23:55;;;;;;;9.60;5.10;;;22.70;96.20;;;;;;5034408;28;20483;-78
2023/09/29 08:26:22;;;;;;;6.67;3.83;;;22.70;96.20;;;;;;5034432;28;20456;-79
2023/09/29 08:28:49;;;;;;;8.67;4.30;;;22.80;96.30;;;;;;5034143;28;20464;-79
2023/09/29 08:31:17;;;;;;;8.03;4.13;;;22.80;96.30;;;;;;5034331;28;20487;-79
2023/09/29 08:33:44;;;;;;;6.37;4.23;;;22.90;96.30;;;;;;5034257;28;20534;-79
2023/09/29 08:36:12;;;;;;;8.53;4.80;;;23.00;96.30;;;;;;5034267;28;20457;-78
2023/09/29 08:38:39;;;;;;;8.10;4.13;;;23.30;96.50;;;;;;5034215;28;20483;-78
2023/09/29 08:41:08;;;;;;;9.43;4.47;;;23.80;96.70;;;;;;5034263;28;20542;-79
2023/09/29 08:43:38;;;;;;;8.40;3.97;;;24.20;93.40;;;;;;5034420;28;20453;-79
2023/09/29 08:46:04;;;;;;;8.17;4.67;;;24.70;91.90;;;;;;5033880;28;20478;-79
2023/09/29 08:48:33;;;;;;;10.03;4.90;;;24.90;90.20;;;;;;5034271;28;20480;-79
2023/09/29 08:51:01;;;;;;;7.07;3.60;;;25.10;90.20;;;;;;5034496;28;20451;-79
2023/09/29 08:53:30;;;;;;;7.07;3.03;;;24.70;74.40;;;;;;5034589;28;20459;-79
2023/09/29 08:56:04;;;;;;;7.67;3.07;;;24.70;74.40;;;;;;5033925;28;20456;-79
2023/09/29 08:58:32;;;;;;;9.30;3.40;;;24.90;70.20;;;;;;5034453;28;20483;-77
2023/09/29 09:00:59;;;;;;;7.10;4.10;;;24.70;67.90;;;;;;5034142;28;20456;-79
2023/09/29 09:03:27;;;;;;;7.90;3.80;;;24.70;69.00;;;;;;5034135;28;20939;-78
2023/09/29 09:05:55;;;;;;;9.30;4.00;;;25.10;66.50;;;;;;5033976;28;20456;-79
2023/09/29 09:08:23;;;;;;;8.20;2.93;;;25.40;66.70;;;;;;5033959;28;20448;-79
2023/09/29 09:10:58;;;;;;;8.33;3.40;;;26.10;67.10;;;;;;5033405;28;20445;-78
2023/09/29 09:13:26;;;;;;;8.80;3.00;;;26.30;58.80;;;;;;5033763;28;20522;-79
2023/09/29 09:16:00;;;;;;;7.60;4.07;;;26.00;52.40;;;;;;5032562;28;20525;-79
2023/09/29 09:18:28;;;;;;;8.33;3.43;;;25.60;52.00;;;;;;5032946;28;20454;-79
2023/09/29 09:20:58;;;;;;;8.73;3.47;;;25.40;58.10;;;;;;5033057;28;20457;-79
2023/09/29 09:23:25;;;;;;;11.40;3.63;;;25.30;55.50;;;;;;5032714;28;20460;-79
2023/09/29 09:25:53;;;;;;;8.00;4.60;;;24.90;55.60;;;;;;5032960;28;20459;-80
2023/09/29 09:28:22;;;;;;;9.70;3.50;;;24.70;57.60;;;;;;5032941;28;20518;-80
2023/09/29 09:31:01;;;;;;;7.23;2.90;;;24.40;57.30;;;;;;5032775;28;20447;-79
2023/09/29 09:33:28;;;;;;;9.30;3.07;;;24.00;57.00;;;;;;5032875;28;20433;-79
2023/09/29 09:36:05;;;;;;;10.20;3.17;;;23.80;56.80;;;;;;5032733;28;20454;-78
2023/09/29 09:38:33;;;;;;;10.90;4.20;;;23.80;60.90;;;;;;5032967;28;20458;-78
2023/09/29 09:41:05;;;;;;;7.93;3.57;;;23.70;56.70;;;;;;5032411;28;20471;-79
2023/09/29 09:43:35;;;;;;;9.13;3.03;;;23.70;56.80;;;;;;5032491;28;20456;-79
2023/09/29 09:46:06;;;;;;;8.03;3.23;;;23.60;56.60;;;;;;5032079;28;20484;-78
2023/09/29 09:48:50;;;;;;;7.90;3.23;;;23.40;56.40;;;;;;5032493;28;20647;-78
2023/09/29 09:51:32;;;;;;;10.27;4.33;;;23.20;58.00;;;;;;5032276;28;20452;-78
2023/09/29 09:54:04;;;;;;;12.80;3.87;;;23.30;61.80;;;;;;5032319;28;20459;-78
2023/09/29 09:56:42;;;;;;;7.63;3.00;;;23.10;59.80;;;;;;5031676;28;20455;-78
2023/09/29 09:59:11;;;;;;;8.53;3.50;;;23.20;60.60;;;;;;5032230;28;20475;-78
2023/09/29 10:01:38;;;;;;;7.17;3.30;;;23.20;56.20;;;;;;5032372;28;20507;-77
2023/09/29 10:04:07;;;;;;;13.23;4.77;;;23.30;56.30;;;;;;5032461;28;20474;-78
2023/09/29 10:06:35;;;;;;;14.27;4.87;;;23.30;56.30;;;;;;5032290;28;20452;-78
2023/09/29 10:09:08;;;;;;;10.50;4.07;;;23.70;56.70;;;;;;5032622;28;20448;-78
2023/09/29 10:11:36;;;;;;;17.00;5.40;;;24.60;54.10;;;;;;5032489;28;20514;-79
2023/09/29 10:14:07;;;;;;;11.03;4.93;;;25.40;49.30;;;;;;5032875;28;20491;-77
2023/09/29 10:16:35;;;;;;;12.03;4.37;;;25.60;40.40;;;;;;5031485;28;20456;-79
2023/09/29 10:19:05;;;;;;;13.47;4.80;;;26.00;40.70;;;;;;5032387;28;20483;-78
2023/09/29 10:21:42;;;;;;;14.70;6.00;;;26.00;40.80;;;;;;5031652;28;20452;-78
2023/09/29 10:24:13;;;;;;;14.03;5.03;;;26.20;39.30;;;;;;5032619;28;20827;-78
2023/09/29 10:26:45;;;;;;;12.10;4.60;;;26.20;31.50;;;;;;5032946;28;20440;-78
2023/09/29 10:29:19;;;;;;;10.03;4.00;;;25.90;31.30;;;;;;5032623;28;20468;-77
2023/09/29 10:31:48;;;;;;;11.73;5.47;;;25.50;31.10;;;;;;5032446;28;20502;-78
2023/09/29 10:34:20;;;;;;;11.93;5.23;;;24.90;32.80;;;;;;5032504;28;20537;-78
2023/09/29 10:36:55;;;;;;;13.83;6.40;;;25.00;39.90;;;;;;5032851;28;20479;-77
2023/09/29 10:39:27;;;;;;;13.80;5.50;;;24.80;37.30;;;;;;5032590;28;20558;-78
2023/09/29 10:42:12;;;;;;;15.37;6.10;;;24.70;30.90;;;;;;5032065;28;20448;-78
2023/09/29 10:44:44;;;;;;;14.00;6.33;;;25.10;30.80;;;;;;5032369;28;20458;-78
2023/09/29 10:47:13;;;;;;;18.30;7.40;;;25.50;31.00;;;;;;5032504;28;20873;-78
2023/09/29 10:49:45;;;;;;;14.10;6.43;;;25.90;31.40;;;;;;5032086;28;20446;-78
2023/09/29 10:52:19;;;;;;;13.20;5.80;;;26.00;31.40;;;;;;5032195;28;20452;-78
2023/09/29 10:54:46;;;;;;;14.90;6.67;;;26.10;30.20;;;;;;5032288;28;21016;-78
2023/09/29 10:57:20;;;;;;;14.60;6.00;;;26.20;28.80;;;;;;5032755;28;20778;-77
2023/09/29 10:59:48;;;;;;;12.23;5.33;;;26.40;26.10;;;;;;5038959;28;20533;-78
2023/09/29 11:02:15;;;;;;;14.70;6.50;;;26.20;24.10;;;;;;5036692;28;20452;-78
2023/09/29 11:04:46;;;;;;;17.60;6.33;;;26.30;24.10;;;;;;5034654;28;20452;-78
2023/09/29 11:07:15;;;;;;;13.50;5.60;;;25.80;23.70;;;;;;5033387;28;20451;-78
2023/09/29 11:09:42;;;;;;;12.80;6.43;;;25.90;24.00;;;;;;5036011;28;20448;-77
2023/09/29 11:12:18;;;;;;;17.33;6.53;;;26.00;23.90;;;;;;5035677;28;20939;-77
2023/09/29 11:14:45;;;;;;;15.90;6.47;;;25.80;27.50;;;;;;5035878;28;20447;-78
2023/09/29 11:17:12;;;;;;;12.80;5.93;;;25.60;30.20;;;;;;5035841;28;20459;-78
2023/09/29 11:19:39;;;;;;;16.70;6.53;;;25.60;31.10;;;;;;5035747;28;20482;-78
2023/09/29 11:22:06;;;;;;;14.67;6.80;;;25.60;28.20;;;;;;5035757;28;20510;-78
2023/09/29 11:24:40;;;;;;;16.40;6.67;;;25.40;31.00;;;;;;5036101;28;20852;-78
2023/09/29 11:27:07;;;;;;;13.30;6.13;;;25.70;31.20;;;;;;5035900;28;20924;-78
2023/09/29 11:29:35;;;;;;;11.50;6.40;;;25.80;25.60;;;;;;5035816;28;20452;-78
2023/09/29 11:32:02;;;;;;;12.33;5.90;;;26.90;24.40;;;;;;5035738;28;20455;-79
2023/09/29 11:34:31;;;;;;;17.23;6.50;;;27.70;23.20;;;;;;5035383;28;20542;-79
2023/09/29 11:36:58;;;;;;;13.33;5.73;;;28.50;17.70;;;;;;5035364;28;20458;-79
2023/09/29 11:39:25;;;;;;;14.48;6.53;;;29.20;13.70;;;;;;5035188;28;20540;-78
2023/09/29 11:41:52;;;;;;;13.52;6.40;;;28.60;12.80;;;;;;5034106;28;20445;-78
2023/09/29 11:44:19;;;;;;;14.35;6.65;;;28.20;17.50;;;;;;5034832;28;20457;-78
2023/09/29 11:46:48;;;;;;;15.17;6.60;;;27.90;14.50;;;;;;5035800;28;20204;-79
2023/09/29 11:49:14;;;;;;;12.77;5.60;;;27.70;11.70;;;;;;5035050;28;20458;-78
2023/09/29 11:51:41;;;;;;;12.90;5.27;;;27.70;15.40;;;;;;5035156;28;20476;-78
2023/09/29 11:54:08;;;;;;;14.63;5.97;;;27.30;17.00;;;;;;5035255;28;20452;-78
2023/09/29 11:56:35;;;;;;;11.40;4.93;;;27.30;17.00;;;;;;5035025;28;20455;-79
2023/09/29 11:59:02;;;;;;;14.80;6.03;;;26.90;16.80;;;;;;5034218;28;20535;-79
2023/09/29 12:01:29;;;;;;;14.13;5.67;;;26.60;20.50;;;;;;5034638;28;20812;-78
2023/09/29 12:03:58;;;;;;;17.40;7.17;;;26.40;22.40;;;;;;5034254;28;20454;-78
2023/09/29 12:06:25;;;;;;;17.20;6.80;;;26.00;23.90;;;;;;5033872;28;20448;-78
2023/09/29 12:08:52;;;;;;;11.80;5.63;;;26.20;23.90;;;;;;5034331;28;20543;-78
2023/09/29 12:11:20;;;;;;;13.00;5.57;;;26.50;24.00;;;;;;5034593;28;20444;-78
2023/09/29 12:13:47;;;;;;;11.37;6.57;;;25.90;23.20;;;;;;5034402;28;20448;-78
2023/09/29 12:16:15;;;;;;;16.17;5.70;;;25.60;23.60;;;;;;5033715;28;20454;-78
2023/09/29 12:18:42;;;;;;;13.53;5.53;;;25.30;25.00;;;;;;5033792;28;20456;-78
2023/09/29 12:21:10;;;;;;;14.33;5.20;;;25.00;24.90;;;;;;5034187;28;20486;-79
2023/09/29 12:23:37;;;;;;;13.27;5.17;;;24.90;30.60;;;;;;5034220;28;20514;-77